Terminal Aerodrome Forecast
Issued by NWS Lake Charles, LA

Home | Current Version | Previous Version | Text Only | Print | Product List | Glossary On
Versions: 1 2 3 4 5 6 7 8 9 10 11 12
000
FTUS44 KLCH 282300
TAFAEX
TAF
KAEX 282332Z 2900/2924 17005KT P6SM SKC
     FM290800 16006KT P6SM BKN025
      TEMPO 2909/2913 5SM BR BKN015
     FM291500 18012KT P6SM BKN025
     FM291800 19012G18KT P6SM BKN035=

USA.gov is the U.S. government's official web portal to all federal, state and local government web resources and services.